메인 페이지
METAR-TAF:

METAR-TAF

공항 :

OR 탐보 국제공항

요하네스버그, 남아프리카공화국

위도: 26-08S, 경도: 028-14E, 고도: 1694m

현재 날씨관측

예보는 46분 전, 23:00시(UTC)에 발표되었습니다.
여러 방향의 바람 1kt
온도 11°C
습도 32%
기압 1031 hPa
시정 10km 이상
1500m 미만 상공 구름 및 적란운 없음

METAR: FAOR 012300Z VRB01KT CAVOK 11/M05 Q1031 NOSIG

시각: 01:46 (23:46 UTC)

예보

예보는 1 시간 46분 전, 22:00시(UTC)에 발표되었습니다.
예보 대상 시간: 02일 00시부터 03일 06시까지 (UTC)
여러 방향의 바람 3kt
시정 10km 이상
1500m 미만 상공 구름 및 적란운 없음
전환 중
02일 09시부터 02일 11시까지 (UTC)
동북동8kt
전환 중
02일 16시부터 02일 18시까지 (UTC)
여러 방향의 바람 3kt

TAF: FAOR 012200Z 0200/0306 VRB03KT CAVOK TX23/0213Z TN07/0304Z BECMG 0209/0211 06008KT BECMG 0216/0218 VRB03KT

4,000개 이상의 공항 관측 자료 및 예보 (METAR 및 TAF 보고).

지도상에서 검색 가능한 기상관측소가 노란 점과 빨간 점으로 표시되어 있습니다.

기상관측소 명을 보려면 표시 위로 마우스를 이동하세요.

날씨 관측과 예보를 보려면 클릭하세요.

지도 변경 : 확대하려면 엑스 표시가 있는 녹색 버튼, 축소하려면 빼기 표시가 있는 녹색 버튼, 다음 페이지의 지도를 보려면 녹색 화살표를 클릭하세요.


METAR-TAF: